»·PEaware :: FDX1040 KBOI-KOAK

FDX1040 :: KBOI-KOAK

FLIGHT INFORMATION

Flight Status: Arrived
Operator:
Federal Express
More flights by this operator :: More flights under this callsign
Pilot: Ryan L. (28399)
Aircraft: Boeing 787-9 Dreamliner
(B789)
More flights by this aircraft type
Origin: KBOI Boise Air Terminal/Gowen
United States
Destination: KOAK Metro Oakland Intl
United States
More flights between these airports :: More routes between these airports
Route: +BOI3 HYVAL REO HARTT RBUCL WNDSR2
File this flight plan on PilotEdge
Remarks:
Altitude:
(Current/Filed)
34,000ft
Speed:
(Current/Filed)
500kts
Departed: 21-Sep-20 01:50 PM
Arrived: 21-Sep-20 03:25 PM
Distance/Time
Traveled:
444nm/1:35
Distance/Time
To Go:
Arrived

Flight Plot

Page will automatically refresh every two minutes.

Flight plan parsing failed; only flown route is shown


Map Options




Map Legend


Flown Route
Filed Route
Departure Airport
Arrival Airport
Navaid (VOR, NDB)
Fix

Horizontal Profiles

Position Reports

Time Latitude Longitude Heading Altitude Ground
Speed
21-Sep-20 13:32 43.566895 -116.216014 204 2885ft 0kts
21-Sep-20 13:33 43.566895 -116.216014 204 2885ft 0kts
21-Sep-20 13:34 43.566895 -116.216014 204 2885ft 0kts
21-Sep-20 13:35 43.566895 -116.216014 204 2885ft 0kts
21-Sep-20 13:36 43.566895 -116.216014 204 2885ft 0kts
21-Sep-20 13:37 43.566895 -116.216014 204 2885ft 0kts
21-Sep-20 13:38 43.566895 -116.216014 204 2885ft 0kts
21-Sep-20 13:39 43.566895 -116.216014 204 2885ft 0kts
21-Sep-20 13:40 43.567050 -116.215924 202 2885ft 2kts
21-Sep-20 13:41 43.567180 -116.215693 261 2885ft 0kts
21-Sep-20 13:42 43.567180 -116.215693 261 2885ft 0kts
21-Sep-20 13:43 43.567180 -116.215693 261 2885ft 0kts
21-Sep-20 13:44 43.566906 -116.216608 239 2885ft 11kts
21-Sep-20 13:45 43.566959 -116.223828 293 2885ft 27kts
21-Sep-20 13:46 43.570617 -116.234719 296 2885ft 30kts
21-Sep-20 13:48 43.570918 -116.235562 295 2885ft 0kts
21-Sep-20 13:49 43.570918 -116.235562 295 2885ft 0kts
21-Sep-20 13:50 43.569487 -116.234696 115 2885ft 51kts
21-Sep-20 13:51 43.552178 -116.184573 116 4104ft 185kts
21-Sep-20 13:52 43.526899 -116.108309 116 6775ft 246kts
21-Sep-20 13:53 43.497410 -116.016099 115 9838ft 283kts
21-Sep-20 13:54 43.466484 -115.915564 114 12799ft 298kts
21-Sep-20 13:55 43.446832 -115.805531 91 15818ft 314kts
21-Sep-20 13:56 43.389509 -115.751139 209 16748ft 297kts
21-Sep-20 13:57 43.357637 -115.853695 251 19021ft 324kts
21-Sep-20 13:58 43.331623 -115.984524 251 19061ft 415kts
21-Sep-20 13:59 43.300059 -116.140550 251 21405ft 435kts
21-Sep-20 14:00 43.268293 -116.295730 251 25044ft 418kts
21-Sep-20 14:01 43.237430 -116.445343 251 28083ft 405kts
21-Sep-20 14:02 43.207188 -116.590910 250 30610ft 394kts
21-Sep-20 14:03 43.178325 -116.728746 250 32814ft 383kts
21-Sep-20 14:04 43.150855 -116.859052 250 34030ft 391kts
21-Sep-20 14:04 43.109537 -116.971017 232 34042ft 420kts
21-Sep-20 14:06 43.022877 -117.126062 231 34038ft 455kts
21-Sep-20 14:07 42.944509 -117.262501 230 34058ft 464kts
21-Sep-20 14:07 42.877354 -117.378361 229 34078ft 472kts
21-Sep-20 14:09 42.782213 -117.541656 229 34075ft 471kts
21-Sep-20 14:09 42.714545 -117.657307 229 34071ft 472kts
21-Sep-20 14:10 42.634348 -117.793796 229 34075ft 471kts
21-Sep-20 14:11 42.547080 -117.922531 222 34071ft 469kts
21-Sep-20 14:13 42.436373 -118.064017 221 34071ft 469kts
21-Sep-20 14:13 42.357339 -118.164033 221 34070ft 470kts
21-Sep-20 14:14 42.266700 -118.278124 223 34013ft 504kts
21-Sep-20 14:15 42.163854 -118.407233 223 33999ft 503kts
21-Sep-20 14:16 42.061008 -118.535645 223 34000ft 503kts
21-Sep-20 14:17 41.959010 -118.662402 222 34000ft 503kts
21-Sep-20 14:18 41.856263 -118.789494 222 34000ft 503kts
21-Sep-20 14:19 41.753465 -118.916078 222 34000ft 503kts
21-Sep-20 14:20 41.650705 -119.042039 222 34000ft 503kts
21-Sep-20 14:21 41.547573 -119.167885 222 34000ft 503kts
21-Sep-20 14:22 41.444228 -119.293424 222 34000ft 503kts
21-Sep-20 14:23 41.340844 -119.418446 222 34000ft 503kts
21-Sep-20 14:24 41.237512 -119.542849 222 34000ft 503kts
21-Sep-20 14:25 41.133363 -119.667675 221 34000ft 503kts
21-Sep-20 14:26 41.029863 -119.791163 221 34000ft 503kts
21-Sep-20 14:27 40.925432 -119.915221 221 34000ft 503kts
21-Sep-20 14:28 40.821596 -120.037943 221 34000ft 503kts
21-Sep-20 14:29 40.720155 -120.157030 221 34000ft 503kts
21-Sep-20 14:30 40.617970 -120.276458 221 33999ft 503kts
21-Sep-20 14:31 40.514699 -120.396638 221 34000ft 503kts
21-Sep-20 14:32 40.409648 -120.518362 221 34000ft 503kts
21-Sep-20 14:33 40.342185 -120.596255 221 34000ft 503kts
21-Sep-20 14:34 40.342185 -120.596255 221 34000ft 503kts
21-Sep-20 14:35 40.342185 -120.596255 221 34000ft 503kts
21-Sep-20 14:36 40.342185 -120.596255 221 34000ft 503kts
21-Sep-20 14:37 40.342185 -120.596255 221 34000ft 503kts
21-Sep-20 14:38 40.342185 -120.596255 221 34000ft 503kts
21-Sep-20 14:39 40.342185 -120.596255 221 34000ft 503kts
21-Sep-20 14:40 40.342185 -120.596255 221 34000ft 503kts
21-Sep-20 14:41 40.342185 -120.596255 221 34000ft 503kts
21-Sep-20 14:42 40.342185 -120.596255 221 34000ft 503kts
21-Sep-20 14:43 40.342185 -120.596255 221 34000ft 503kts
21-Sep-20 14:44 40.262424 -120.688068 221 34000ft 503kts
21-Sep-20 14:45 40.163330 -120.801714 221 34000ft 503kts
21-Sep-20 14:46 40.061618 -120.917891 221 34000ft 503kts
21-Sep-20 14:47 39.958479 -121.035212 221 34000ft 503kts
21-Sep-20 14:48 39.854734 -121.152730 221 34000ft 503kts
21-Sep-20 14:49 39.753178 -121.267294 221 33999ft 503kts
21-Sep-20 14:50 39.651740 -121.381263 221 33999ft 503kts
21-Sep-20 14:51 39.548587 -121.496691 221 33846ft 505kts
21-Sep-20 14:52 39.445886 -121.611143 221 32857ft 498kts
21-Sep-20 14:53 39.346886 -121.721035 220 31911ft 494kts
21-Sep-20 14:54 39.255307 -121.822304 220 30945ft 459kts
21-Sep-20 14:55 39.178166 -121.907163 221 30101ft 430kts
21-Sep-20 14:56 39.093113 -122.000688 221 29964ft 420kts
21-Sep-20 14:57 39.008002 -122.098752 223 28540ft 413kts
21-Sep-20 14:58 38.924678 -122.195966 223 26038ft 402kts
21-Sep-20 14:59 38.843453 -122.290668 223 24371ft 392kts
21-Sep-20 15:00 38.764186 -122.382903 223 23190ft 385kts
21-Sep-20 15:01 38.681723 -122.465714 194 21648ft 381kts
21-Sep-20 15:02 38.579520 -122.460755 176 18912ft 386kts
21-Sep-20 15:03 38.476032 -122.446724 175 15843ft 353kts
21-Sep-20 15:04 38.382975 -122.432941 174 12947ft 323kts
21-Sep-20 15:05 38.295036 -122.419708 174 11316ft 319kts
21-Sep-20 15:06 38.208318 -122.406517 174 9315ft 312kts
21-Sep-20 15:07 38.121464 -122.393296 174 7002ft 315kts
21-Sep-20 15:08 38.036982 -122.380307 172 6972ft 305kts
21-Sep-20 15:09 37.965038 -122.324666 145 6889ft 308kts
21-Sep-20 15:10 37.897433 -122.260752 144 5645ft 301kts
21-Sep-20 15:11 37.835843 -122.200265 125 4954ft 257kts
21-Sep-20 15:12 37.811221 -122.156898 133 5019ft 234kts
21-Sep-20 15:13 37.767526 -122.094830 133 4999ft 225kts
21-Sep-20 15:14 37.726210 -122.034937 133 4989ft 226kts
21-Sep-20 15:15 37.685571 -121.976104 133 3994ft 203kts
21-Sep-20 15:16 37.647899 -121.924037 151 3911ft 201kts
21-Sep-20 15:17 37.605686 -121.949081 223 3976ft 182kts
21-Sep-20 15:18 37.592292 -122.000999 282 3971ft 168kts
21-Sep-20 15:19 37.603630 -122.058126 282 3326ft 166kts
21-Sep-20 15:20 37.623971 -122.098345 306 2392ft 139kts
21-Sep-20 15:21 37.645767 -122.131062 306 1740ft 135kts
21-Sep-20 15:22 37.669879 -122.167127 307 1012ft 132kts
21-Sep-20 15:23 37.690392 -122.197799 307 341ft 129kts
21-Sep-20 15:24 37.706622 -122.221955 320 20ft 19kts
21-Sep-20 15:25 37.711032 -122.226088 7 20ft 0kts
21-Sep-20 15:26 37.711076 -122.224658 97 20ft 13kts
21-Sep-20 15:27 37.714137 -122.219291 139 20ft 8kts

Navigation Log

Ident Type
Flight plan parsing failed, navigation log unavailable